createdAt,value
2023-05-03T00:01:57.022Z,13.35
2023-05-03T00:04:24.270Z,15.10
2023-05-03T00:06:51.585Z,10.80
2023-05-03T00:09:18.326Z,13.32
2023-05-03T00:11:44.953Z,11.75
2023-05-03T00:14:11.659Z,12.52
2023-05-03T00:16:39.173Z,12.10
2023-05-03T00:19:07.754Z,12.57
2023-05-03T00:21:37.514Z,8.75
2023-05-03T00:24:05.886Z,14.38
2023-05-03T00:26:33.360Z,10.13
2023-05-03T00:29:00.898Z,9.07
2023-05-03T00:31:27.722Z,9.05
2023-05-03T00:33:54.415Z,12.50
2023-05-03T00:36:21.401Z,12.15
2023-05-03T00:38:48.062Z,10.00
2023-05-03T00:41:14.732Z,9.85
2023-05-03T00:43:41.395Z,12.48
2023-05-03T00:46:16.573Z,10.60
2023-05-03T00:48:44.821Z,11.70
2023-05-03T00:51:14.258Z,10.35
2023-05-03T00:53:42.412Z,11.93
2023-05-03T00:56:09.799Z,11.82
2023-05-03T00:58:40.027Z,11.98
2023-05-03T01:01:07.829Z,11.95
2023-05-03T01:03:37.693Z,9.07
2023-05-03T01:06:37.735Z,9.43
2023-05-03T01:09:36.207Z,8.93
2023-05-03T01:12:15.050Z,9.38
2023-05-03T01:14:53.304Z,21.88
2023-05-03T01:17:25.842Z,6.88
2023-05-03T01:19:57.820Z,11.40
2023-05-03T01:22:38.442Z,9.50
2023-05-03T01:25:09.374Z,8.20
2023-05-03T01:30:07.815Z,6.03
2023-05-03T01:32:56.469Z,7.53
2023-05-03T01:35:36.953Z,7.22
2023-05-03T01:38:05.278Z,8.85
2023-05-03T01:40:38.632Z,12.70
2023-05-03T01:43:05.677Z,7.82
2023-05-03T01:45:32.525Z,8.75
2023-05-03T01:47:59.937Z,8.02
2023-05-03T01:50:26.663Z,9.60
2023-05-03T01:52:53.290Z,11.52
2023-05-03T01:55:19.969Z,9.85
2023-05-03T01:57:46.608Z,7.30
2023-05-03T02:00:13.904Z,8.00
2023-05-03T02:02:40.750Z,7.82
2023-05-03T02:05:09.328Z,8.35
2023-05-03T02:07:36.011Z,8.70
2023-05-03T02:10:03.088Z,9.65
2023-05-03T02:12:29.976Z,8.38
2023-05-03T02:14:56.599Z,9.73
2023-05-03T02:17:26.710Z,7.95
2023-05-03T02:19:53.435Z,9.80
2023-05-03T02:22:20.082Z,7.00
2023-05-03T02:24:47.332Z,10.48
2023-05-03T02:27:13.979Z,8.52
2023-05-03T02:29:40.809Z,7.38
2023-05-03T02:32:08.793Z,7.82
2023-05-03T02:34:35.555Z,9.55
2023-05-03T02:37:02.327Z,7.90
2023-05-03T02:39:29.202Z,8.70
2023-05-03T02:41:55.842Z,8.45
2023-05-03T02:44:22.461Z,7.45
2023-05-03T02:46:49.246Z,6.65
2023-05-03T02:49:15.926Z,8.32
2023-05-03T02:51:42.607Z,7.70
2023-05-03T02:54:09.271Z,8.85
2023-05-03T02:56:36.053Z,7.55
2023-05-03T02:59:02.706Z,9.05
2023-05-03T03:01:29.922Z,7.95
2023-05-03T03:03:56.855Z,7.82
2023-05-03T03:06:23.601Z,7.13
2023-05-03T03:08:50.395Z,7.82
2023-05-03T03:11:17.520Z,8.15
2023-05-03T03:13:44.197Z,7.60
2023-05-03T03:16:10.875Z,6.82
2023-05-03T03:18:37.682Z,6.13
2023-05-03T03:21:04.394Z,7.65
2023-05-03T03:23:31.135Z,7.50
2023-05-03T03:25:57.925Z,7.72
2023-05-03T03:28:24.557Z,8.15
2023-05-03T03:30:51.243Z,9.30
2023-05-03T03:33:17.966Z,7.47
2023-05-03T03:35:44.720Z,11.73
2023-05-03T03:38:11.371Z,7.30
2023-05-03T03:40:38.177Z,5.88
2023-05-03T03:43:04.840Z,10.60
2023-05-03T03:45:31.496Z,8.27
2023-05-03T03:47:58.405Z,8.93
2023-05-03T03:50:26.247Z,7.43
2023-05-03T03:52:52.944Z,13.40
2023-05-03T03:55:19.685Z,12.52
2023-05-03T03:57:46.332Z,14.70
2023-05-03T04:00:13.506Z,9.45
2023-05-03T04:02:40.863Z,16.17
2023-05-03T04:05:08.076Z,14.85
2023-05-03T04:07:34.731Z,22.10
2023-05-03T04:10:01.701Z,18.38
2023-05-03T04:12:28.717Z,25.70
2023-05-03T04:14:57.097Z,16.30
2023-05-03T04:17:23.731Z,23.13
2023-05-03T04:19:50.424Z,25.27
2023-05-03T04:22:17.585Z,22.88
2023-05-03T04:24:45.834Z,26.92
2023-05-03T04:27:14.644Z,16.00
2023-05-03T04:29:41.594Z,24.88
2023-05-03T04:32:08.311Z,20.42
2023-05-03T04:34:34.953Z,22.52
2023-05-03T04:37:01.653Z,24.05
2023-05-03T04:39:28.422Z,23.15
2023-05-03T04:41:55.143Z,23.95
2023-05-03T04:44:22.309Z,27.63
2023-05-03T04:46:52.036Z,21.30
2023-05-03T04:49:18.843Z,21.33
2023-05-03T04:51:45.522Z,18.50
2023-05-03T04:54:12.191Z,25.13
2023-05-03T04:56:38.832Z,19.42
2023-05-03T04:59:05.591Z,17.90
2023-05-03T05:01:32.964Z,22.40
2023-05-03T05:04:00.036Z,20.85
2023-05-03T05:06:27.341Z,19.23
2023-05-03T05:08:54.029Z,18.48
2023-05-03T05:11:22.224Z,23.02
2023-05-03T05:13:48.866Z,22.08
2023-05-03T05:16:15.776Z,17.83
2023-05-03T05:18:42.516Z,22.70
2023-05-03T05:21:09.166Z,22.98
2023-05-03T05:23:39.822Z,19.20
2023-05-03T05:26:08.576Z,22.63
2023-05-03T05:28:35.253Z,22.45
2023-05-03T05:31:01.912Z,23.77
2023-05-03T05:33:28.892Z,22.20
2023-05-03T05:35:55.733Z,20.98
2023-05-03T05:38:23.590Z,23.70
2023-05-03T05:40:53.515Z,26.27
2023-05-03T05:43:20.138Z,23.70
2023-05-03T05:45:47.223Z,22.33
2023-05-03T05:48:14.261Z,18.55
2023-05-03T05:50:41.104Z,18.98
2023-05-03T05:53:09.033Z,22.00
2023-05-03T05:55:37.615Z,19.00
2023-05-03T05:58:04.356Z,19.58
2023-05-03T06:00:31.214Z,19.60
2023-05-03T06:02:57.908Z,21.45
2023-05-03T06:05:24.700Z,19.05
2023-05-03T06:07:51.330Z,20.02
2023-05-03T06:10:18.315Z,19.15
2023-05-03T06:12:44.954Z,22.75
2023-05-03T06:15:12.277Z,14.98
2023-05-03T06:17:39.010Z,18.40
2023-05-03T06:20:06.682Z,17.02
2023-05-03T06:22:33.514Z,17.92
2023-05-03T06:25:00.253Z,19.17
2023-05-03T06:27:26.952Z,19.02
2023-05-03T06:29:55.542Z,19.08
2023-05-03T06:32:27.500Z,16.75
2023-05-03T06:34:54.262Z,18.60
2023-05-03T06:37:23.188Z,14.73
2023-05-03T06:39:52.074Z,19.13
2023-05-03T06:42:20.809Z,21.45
2023-05-03T06:44:48.216Z,23.88
2023-05-03T06:47:14.909Z,19.08
2023-05-03T06:49:41.813Z,20.98
2023-05-03T06:52:11.491Z,18.75
2023-05-03T06:54:40.100Z,19.40
2023-05-03T06:57:07.643Z,18.55
2023-05-03T06:59:35.999Z,18.45
2023-05-03T07:02:02.671Z,15.65
2023-05-03T07:04:30.206Z,18.83
2023-05-03T07:06:57.062Z,19.77
2023-05-03T07:09:41.463Z,24.00
2023-05-03T07:12:08.840Z,22.98
2023-05-03T07:14:35.598Z,19.30
2023-05-03T07:17:03.978Z,18.90
2023-05-03T07:19:30.920Z,17.33
2023-05-03T07:21:59.137Z,18.40
2023-05-03T07:24:27.240Z,19.38
2023-05-03T07:26:54.126Z,22.17
2023-05-03T07:29:21.706Z,15.55
2023-05-03T07:31:48.747Z,18.05
2023-05-03T07:34:18.282Z,16.63
2023-05-03T07:36:44.918Z,17.67
2023-05-03T07:39:11.802Z,22.30
2023-05-03T07:41:40.160Z,18.52
2023-05-03T07:44:07.774Z,21.85
2023-05-03T07:46:35.327Z,21.13
2023-05-03T07:49:04.095Z,15.27
2023-05-03T07:51:41.955Z,24.63
2023-05-03T07:54:08.738Z,19.25
2023-05-03T07:56:35.444Z,16.33
2023-05-03T07:59:09.364Z,19.75
2023-05-03T08:01:37.211Z,21.50
2023-05-03T08:04:04.711Z,19.45
2023-05-03T08:06:34.362Z,18.63
2023-05-03T08:09:01.148Z,16.73
2023-05-03T08:11:29.022Z,22.17
2023-05-03T08:13:57.494Z,17.55
2023-05-03T08:16:26.297Z,15.23
2023-05-03T08:18:53.066Z,16.10
2023-05-03T08:21:20.126Z,17.92
2023-05-03T08:23:46.778Z,17.27
2023-05-03T08:26:14.683Z,14.52
2023-05-03T08:28:43.391Z,17.83
2023-05-03T08:31:12.381Z,16.02
2023-05-03T08:33:40.723Z,14.07
2023-05-03T08:36:07.680Z,15.93
2023-05-03T08:38:34.814Z,14.55
2023-05-03T08:41:08.663Z,16.60
2023-05-03T08:43:40.096Z,14.77
2023-05-03T08:46:10.765Z,14.23
2023-05-03T08:48:39.804Z,15.75
2023-05-03T08:51:09.954Z,16.55
2023-05-03T08:53:36.766Z,13.32
2023-05-03T08:56:09.967Z,14.45
2023-05-03T08:58:37.587Z,16.23
2023-05-03T09:01:10.393Z,14.93
2023-05-03T09:03:37.606Z,12.40
2023-05-03T09:06:22.828Z,16.38
2023-05-03T09:08:50.235Z,12.43
2023-05-03T09:11:21.660Z,16.38
2023-05-03T09:13:48.687Z,13.63
2023-05-03T09:16:29.707Z,14.23
2023-05-03T09:19:00.679Z,14.35
2023-05-03T09:23:54.889Z,14.88
2023-05-03T09:26:32.899Z,12.90
2023-05-03T09:29:02.242Z,18.02
2023-05-03T09:31:30.681Z,15.93
2023-05-03T09:34:00.284Z,13.40
2023-05-03T09:36:29.426Z,13.35
2023-05-03T09:38:56.430Z,12.30
2023-05-03T09:41:31.717Z,16.13
2023-05-03T09:44:05.088Z,11.95
2023-05-03T09:46:33.024Z,14.13
2023-05-03T09:49:04.306Z,13.60
2023-05-03T09:51:34.680Z,14.73
2023-05-03T09:54:05.630Z,14.20
2023-05-03T09:59:00.929Z,13.95
2023-05-03T10:01:28.098Z,12.07
2023-05-03T10:03:59.280Z,11.20
2023-05-03T10:06:36.096Z,11.35
2023-05-03T10:09:24.534Z,10.52
2023-05-03T10:11:53.632Z,10.82
2023-05-03T10:14:21.530Z,10.65
2023-05-03T10:16:52.267Z,8.30
2023-05-03T10:19:35.003Z,11.88
2023-05-03T10:22:11.702Z,9.80
2023-05-03T10:25:01.831Z,10.50
2023-05-03T10:27:44.445Z,9.02
2023-05-03T10:30:32.797Z,8.50
2023-05-03T10:33:22.475Z,8.05
2023-05-03T10:35:53.476Z,12.27
2023-05-03T10:38:26.372Z,10.45
2023-05-03T10:40:55.230Z,12.00
2023-05-03T10:43:33.359Z,9.63
2023-05-03T10:46:02.302Z,10.63
2023-05-03T10:48:29.904Z,10.30
2023-05-03T10:50:57.815Z,8.60
2023-05-03T10:53:38.897Z,9.38
2023-05-03T10:56:08.230Z,7.70
2023-05-03T10:58:46.753Z,10.52
2023-05-03T11:01:16.234Z,8.50
2023-05-03T11:04:03.249Z,7.75
2023-05-03T11:06:36.575Z,9.23
2023-05-03T11:09:06.638Z,7.85
2023-05-03T11:11:36.357Z,6.85
2023-05-03T11:14:04.281Z,6.47
2023-05-03T11:16:31.591Z,10.55
2023-05-03T11:18:59.968Z,10.05
2023-05-03T11:21:27.527Z,8.00
2023-05-03T11:23:56.560Z,8.95
2023-05-03T11:26:26.192Z,6.43
2023-05-03T11:28:58.311Z,8.55
2023-05-03T11:31:25.087Z,7.25
2023-05-03T11:33:51.935Z,8.95
2023-05-03T11:36:18.661Z,7.65
2023-05-03T11:38:48.144Z,6.82
2023-05-03T11:41:16.978Z,8.68
2023-05-03T11:44:00.697Z,6.57
2023-05-03T11:46:37.390Z,6.57
2023-05-03T11:49:04.218Z,7.53
2023-05-03T11:51:31.416Z,6.28
2023-05-03T11:54:06.849Z,6.60
2023-05-03T11:56:40.012Z,6.85
2023-05-03T11:59:08.989Z,5.70
2023-05-03T12:01:36.081Z,6.20
2023-05-03T12:04:07.503Z,5.75
2023-05-03T12:06:38.085Z,5.95
2023-05-03T12:09:18.489Z,5.93
2023-05-03T12:11:47.935Z,6.53
2023-05-03T12:14:16.168Z,6.82
2023-05-03T12:16:51.604Z,6.03
2023-05-03T12:22:22.888Z,6.20
2023-05-03T12:24:59.683Z,5.90
2023-05-03T12:27:29.552Z,7.13
2023-05-03T12:30:01.579Z,7.03
2023-05-03T12:32:28.697Z,5.97
2023-05-03T12:35:02.410Z,5.88
2023-05-03T12:37:33.424Z,6.70
2023-05-03T12:40:30.153Z,6.90
2023-05-03T12:42:47.318Z,5.53
2023-05-03T12:45:16.580Z,5.45
2023-05-03T12:47:50.503Z,6.10
2023-05-03T12:50:19.036Z,5.78
2023-05-03T12:52:46.178Z,6.78
2023-05-03T12:55:17.759Z,6.70
2023-05-03T12:57:46.562Z,5.95
2023-05-03T13:00:24.909Z,7.72
2023-05-03T13:05:33.792Z,6.75
2023-05-03T13:08:09.089Z,5.15
2023-05-03T13:10:41.265Z,5.03
2023-05-03T13:13:09.242Z,14.70
2023-05-03T13:15:37.459Z,5.05
2023-05-03T13:18:08.970Z,5.60
2023-05-03T13:20:37.159Z,6.38
2023-05-03T13:23:06.821Z,5.65
2023-05-03T13:25:33.548Z,6.13
2023-05-03T13:28:02.235Z,7.28
2023-05-03T13:30:29.396Z,5.53
2023-05-03T13:32:56.100Z,5.43
2023-05-03T13:35:24.165Z,4.40
2023-05-03T13:37:52.183Z,4.00
2023-05-03T13:40:18.952Z,5.18
2023-05-03T13:42:45.731Z,5.80
2023-05-03T13:45:13.601Z,5.32
2023-05-03T13:48:04.884Z,6.00
2023-05-03T13:50:33.024Z,5.38
2023-05-03T13:52:59.736Z,4.78
2023-05-03T13:55:26.816Z,4.18
2023-05-03T13:57:53.531Z,4.82
2023-05-03T14:00:22.685Z,5.63
2023-05-03T14:02:49.509Z,4.20
2023-05-03T14:05:16.658Z,4.60
2023-05-03T14:07:43.335Z,5.15
2023-05-03T14:10:10.876Z,4.32
2023-05-03T14:12:38.044Z,5.97
2023-05-03T14:15:05.998Z,6.80
2023-05-03T14:17:35.418Z,5.30
2023-05-03T14:20:02.497Z,5.55
2023-05-03T14:22:30.508Z,4.57
2023-05-03T14:24:57.273Z,5.25
2023-05-03T14:27:23.993Z,4.30
2023-05-03T14:29:51.424Z,3.85
2023-05-03T14:32:18.276Z,3.90
2023-05-03T14:34:46.886Z,3.80
2023-05-03T14:37:13.619Z,4.43
2023-05-03T14:39:40.325Z,3.72
2023-05-03T14:42:07.006Z,3.50
2023-05-03T14:44:33.780Z,3.67
2023-05-03T14:47:01.084Z,4.40
2023-05-03T14:49:27.816Z,6.53
2023-05-03T14:51:54.637Z,5.20
2023-05-03T14:54:24.118Z,4.90
2023-05-03T14:56:50.972Z,4.45
2023-05-03T14:59:20.034Z,3.45
2023-05-03T15:01:46.746Z,3.38
2023-05-03T15:04:14.978Z,7.97
2023-05-03T15:06:42.789Z,3.53
2023-05-03T15:09:12.325Z,3.60
2023-05-03T15:11:40.599Z,3.40
2023-05-03T15:14:07.311Z,3.13
2023-05-03T15:16:36.550Z,3.13
2023-05-03T15:19:04.155Z,3.33
2023-05-03T15:21:31.275Z,3.67
2023-05-03T15:23:58.434Z,3.42
2023-05-03T15:26:27.090Z,5.28
2023-05-03T15:28:53.819Z,4.47
2023-05-03T15:31:20.585Z,4.43
2023-05-03T15:33:47.296Z,4.03
2023-05-03T15:36:15.703Z,3.30
2023-05-03T15:38:42.449Z,3.83
2023-05-03T15:41:09.411Z,3.40
2023-05-03T15:43:36.074Z,6.30
2023-05-03T15:46:02.853Z,4.10
2023-05-03T15:48:29.574Z,4.53
2023-05-03T15:50:56.294Z,3.60
2023-05-03T15:53:22.988Z,4.22
2023-05-03T15:55:49.773Z,3.72
2023-05-03T15:58:19.351Z,3.88
2023-05-03T16:00:46.807Z,5.05
2023-05-03T16:03:15.172Z,3.75
2023-05-03T16:05:41.965Z,3.85
2023-05-03T16:08:08.596Z,3.42
2023-05-03T16:10:36.991Z,6.97
2023-05-03T16:13:03.656Z,3.05
2023-05-03T16:15:31.131Z,4.72
2023-05-03T16:17:58.056Z,2.90
2023-05-03T16:20:24.786Z,2.58
2023-05-03T16:22:52.918Z,2.95
2023-05-03T16:25:19.790Z,3.85
2023-05-03T16:27:46.564Z,3.55
2023-05-03T16:30:13.649Z,3.00
2023-05-03T16:32:42.243Z,3.38
2023-05-03T16:35:09.026Z,5.57
2023-05-03T16:37:37.414Z,4.05
2023-05-03T16:40:11.507Z,3.75
2023-05-03T16:42:39.283Z,4.55
2023-05-03T16:45:10.842Z,3.53
2023-05-03T16:47:38.135Z,3.55
2023-05-03T16:50:08.205Z,3.95
2023-05-03T16:52:39.728Z,4.10
2023-05-03T16:55:09.784Z,5.47
2023-05-03T16:57:38.056Z,4.53
2023-05-03T17:00:09.363Z,3.92
2023-05-03T17:02:38.066Z,2.70
2023-05-03T17:05:05.853Z,3.17
2023-05-03T17:07:33.209Z,3.45
2023-05-03T17:10:00.469Z,5.57
2023-05-03T17:12:27.574Z,3.42
2023-05-03T17:14:54.364Z,4.10
2023-05-03T17:17:23.442Z,3.53
2023-05-03T17:19:50.097Z,2.78
2023-05-03T17:22:16.800Z,3.28
2023-05-03T17:24:43.598Z,2.72
2023-05-03T17:27:10.250Z,3.80
2023-05-03T17:29:37.022Z,3.22
2023-05-03T17:32:04.132Z,3.53
2023-05-03T17:34:31.264Z,3.90
2023-05-03T17:36:59.157Z,4.20
2023-05-03T17:39:27.300Z,3.35
2023-05-03T17:41:54.033Z,3.35
2023-05-03T17:44:20.741Z,2.65
2023-05-03T17:46:47.498Z,3.90
2023-05-03T17:49:14.474Z,3.83
2023-05-03T17:51:41.600Z,3.63
2023-05-03T17:54:08.466Z,4.10
2023-05-03T17:56:35.104Z,5.57
2023-05-03T17:59:02.006Z,2.97
2023-05-03T18:01:29.268Z,4.40
2023-05-03T18:03:57.654Z,3.40
2023-05-03T18:06:26.748Z,4.65
2023-05-03T18:08:53.508Z,4.30
2023-05-03T18:11:20.154Z,4.25
2023-05-03T18:13:47.274Z,5.47
2023-05-03T18:16:14.700Z,4.32
2023-05-03T18:18:41.373Z,4.32
2023-05-03T18:21:11.016Z,5.03
2023-05-03T18:23:37.864Z,4.93
2023-05-03T18:26:04.508Z,5.75
2023-05-03T18:28:32.703Z,3.97
2023-05-03T18:30:59.451Z,4.32
2023-05-03T18:33:26.127Z,5.90
2023-05-03T18:35:55.447Z,5.40
2023-05-03T18:38:22.224Z,4.00
2023-05-03T18:40:49.603Z,5.35
2023-05-03T18:43:16.484Z,5.90
2023-05-03T18:45:45.038Z,3.38
2023-05-03T18:48:12.181Z,3.95
2023-05-03T18:50:39.393Z,5.78
2023-05-03T18:53:07.954Z,4.05
2023-05-03T18:55:34.653Z,4.45
2023-05-03T18:58:01.480Z,4.72
2023-05-03T19:00:29.724Z,5.75
2023-05-03T19:02:56.384Z,4.55
2023-05-03T19:05:23.091Z,4.97
2023-05-03T19:07:49.939Z,4.70
2023-05-03T19:10:17.286Z,4.53
2023-05-03T19:12:44.651Z,6.68
2023-05-03T19:15:12.109Z,7.78
2023-05-03T19:17:41.720Z,6.32
2023-05-03T19:20:11.954Z,4.88
2023-05-03T19:22:38.841Z,4.53
2023-05-03T19:25:07.856Z,4.70
2023-05-03T19:27:35.020Z,6.15
2023-05-03T19:30:02.040Z,5.55
2023-05-03T19:32:29.098Z,5.50
2023-05-03T19:34:57.069Z,7.70
2023-05-03T19:37:23.901Z,5.70
2023-05-03T19:39:50.703Z,4.43
2023-05-03T19:42:17.447Z,5.80
2023-05-03T19:44:44.157Z,5.90
2023-05-03T19:47:13.037Z,5.72
2023-05-03T19:49:40.350Z,6.45
2023-05-03T19:52:07.295Z,5.00
2023-05-03T19:54:34.061Z,5.68
2023-05-03T19:57:07.145Z,4.22
2023-05-03T19:59:34.113Z,6.22
2023-05-03T20:02:01.283Z,4.75
2023-05-03T20:04:28.240Z,6.18
2023-05-03T20:06:54.964Z,6.97
2023-05-03T20:09:23.360Z,8.00
2023-05-03T20:11:56.269Z,5.43
2023-05-03T20:14:22.928Z,6.03
2023-05-03T20:16:49.726Z,5.55
2023-05-03T20:19:16.668Z,5.18
2023-05-03T20:21:43.863Z,6.32
2023-05-03T20:24:13.344Z,5.63
2023-05-03T20:26:41.117Z,5.22
2023-05-03T20:29:07.826Z,5.47
2023-05-03T20:31:34.558Z,6.15
2023-05-03T20:34:01.374Z,5.63
2023-05-03T20:36:28.131Z,7.00
2023-05-03T20:38:56.218Z,6.07
2023-05-03T20:41:23.552Z,5.68
2023-05-03T20:43:53.362Z,5.93
2023-05-03T20:46:20.114Z,7.95
2023-05-03T20:48:46.795Z,7.22
2023-05-03T20:51:14.663Z,8.93
2023-05-03T20:53:42.398Z,6.18
2023-05-03T20:56:09.141Z,4.88
2023-05-03T20:58:36.285Z,5.80
2023-05-03T21:01:04.268Z,7.25
2023-05-03T21:03:31.672Z,9.45
2023-05-03T21:05:58.766Z,11.30
2023-05-03T21:08:25.663Z,7.25
2023-05-03T21:10:53.406Z,6.70
2023-05-03T21:13:20.711Z,7.43
2023-05-03T21:15:47.660Z,7.90
2023-05-03T21:18:14.354Z,6.35
2023-05-03T21:20:41.064Z,7.32
2023-05-03T21:23:07.868Z,9.88
2023-05-03T21:25:34.568Z,7.53
2023-05-03T21:28:01.984Z,5.75
2023-05-03T21:30:28.726Z,9.07
2023-05-03T21:32:55.470Z,7.13
2023-05-03T21:35:22.190Z,6.45
2023-05-03T21:37:49.786Z,8.75
2023-05-03T21:40:16.623Z,10.50
2023-05-03T21:42:43.525Z,8.57
2023-05-03T21:45:11.279Z,7.38
2023-05-03T21:47:39.983Z,10.05
2023-05-03T21:50:07.800Z,7.65
2023-05-03T21:52:34.729Z,7.88
2023-05-03T21:55:02.246Z,8.00
2023-05-03T21:57:30.213Z,10.65
2023-05-03T21:59:58.431Z,8.27
2023-05-03T22:02:25.491Z,8.48
2023-05-03T22:04:52.356Z,8.77
2023-05-03T22:07:18.990Z,10.07
2023-05-03T22:09:47.188Z,8.60
2023-05-03T22:12:23.278Z,9.57
2023-05-03T22:14:50.437Z,8.82
2023-05-03T22:17:17.375Z,8.77
2023-05-03T22:19:44.217Z,17.52
2023-05-03T22:22:11.386Z,8.75
2023-05-03T22:24:38.105Z,10.13
2023-05-03T22:27:04.751Z,9.10
2023-05-03T22:29:31.497Z,9.32
2023-05-03T22:31:59.392Z,8.43
2023-05-03T22:34:26.119Z,11.85
2023-05-03T22:36:52.763Z,9.85
2023-05-03T22:39:19.434Z,9.95
2023-05-03T22:41:46.158Z,8.20
2023-05-03T22:44:13.118Z,9.32
2023-05-03T22:46:39.937Z,9.32
2023-05-03T22:49:07.336Z,9.98
2023-05-03T22:51:34.038Z,9.57
2023-05-03T22:54:00.890Z,7.28
2023-05-03T22:56:27.515Z,18.58
2023-05-03T22:58:54.232Z,10.23
2023-05-03T23:01:20.959Z,8.90
2023-05-03T23:03:47.740Z,12.65
2023-05-03T23:06:15.093Z,9.70
2023-05-03T23:08:41.809Z,10.45
2023-05-03T23:11:09.286Z,18.02
2023-05-03T23:13:35.992Z,9.40
2023-05-03T23:16:02.731Z,10.30
2023-05-03T23:18:29.435Z,9.65
2023-05-03T23:20:56.105Z,10.52
2023-05-03T23:23:22.768Z,8.73
2023-05-03T23:25:49.366Z,9.75
2023-05-03T23:28:16.108Z,10.73
2023-05-03T23:30:44.345Z,12.70
2023-05-03T23:33:11.825Z,11.80
2023-05-03T23:35:39.120Z,8.55
2023-05-03T23:38:06.682Z,12.48
2023-05-03T23:40:33.384Z,13.57
2023-05-03T23:43:00.264Z,12.50
2023-05-03T23:45:27.280Z,8.65
2023-05-03T23:47:54.157Z,12.07
2023-05-03T23:50:21.046Z,10.10
2023-05-03T23:52:47.831Z,8.77
2023-05-03T23:55:14.566Z,11.15
2023-05-03T23:57:41.391Z,10.80
